sensor_id;sensor_type;location;lat;lon;timestamp;P1;durP1;ratioP1;P2;durP2;ratioP2
17686;SDS011;8962;52.538;13.266;2022-10-16T00:00:41;3.05;;;2.65;;
17686;SDS011;8962;52.538;13.266;2022-10-16T00:03:10;2.90;;;2.60;;
17686;SDS011;8962;52.538;13.266;2022-10-16T00:05:40;4.38;;;2.78;;
17686;SDS011;8962;52.538;13.266;2022-10-16T00:08:09;4.00;;;2.65;;
17686;SDS011;8962;52.538;13.266;2022-10-16T00:10:37;5.03;;;2.50;;
17686;SDS011;8962;52.538;13.266;2022-10-16T00:13:05;2.92;;;2.45;;
17686;SDS011;8962;52.538;13.266;2022-10-16T00:15:33;5.15;;;2.95;;
17686;SDS011;8962;52.538;13.266;2022-10-16T00:18:03;2.42;;;2.20;;
17686;SDS011;8962;52.538;13.266;2022-10-16T00:20:33;6.05;;;2.67;;
17686;SDS011;8962;52.538;13.266;2022-10-16T00:23:02;5.63;;;2.40;;
17686;SDS011;8962;52.538;13.266;2022-10-16T00:25:30;2.78;;;2.40;;
17686;SDS011;8962;52.538;13.266;2022-10-16T00:27:59;3.10;;;2.55;;
17686;SDS011;8962;52.538;13.266;2022-10-16T00:30:26;2.42;;;2.22;;
17686;SDS011;8962;52.538;13.266;2022-10-16T00:32:54;4.70;;;2.17;;
17686;SDS011;8962;52.538;13.266;2022-10-16T00:35:22;3.90;;;2.50;;
17686;SDS011;8962;52.538;13.266;2022-10-16T00:37:49;11.85;;;3.10;;
17686;SDS011;8962;52.538;13.266;2022-10-16T00:40:16;2.30;;;2.10;;
17686;SDS011;8962;52.538;13.266;2022-10-16T00:42:43;3.03;;;2.30;;
17686;SDS011;8962;52.538;13.266;2022-10-16T00:45:11;2.30;;;2.10;;
17686;SDS011;8962;52.538;13.266;2022-10-16T00:47:39;2.90;;;2.40;;
17686;SDS011;8962;52.538;13.266;2022-10-16T00:50:10;2.50;;;2.30;;
17686;SDS011;8962;52.538;13.266;2022-10-16T00:52:46;4.47;;;2.25;;
17686;SDS011;8962;52.538;13.266;2022-10-16T00:55:14;2.65;;;2.30;;
17686;SDS011;8962;52.538;13.266;2022-10-16T00:57:42;3.40;;;2.47;;
17686;SDS011;8962;52.538;13.266;2022-10-16T01:00:13;2.53;;;2.10;;
17686;SDS011;8962;52.538;13.266;2022-10-16T01:02:42;2.85;;;2.13;;
17686;SDS011;8962;52.538;13.266;2022-10-16T01:05:08;2.33;;;2.13;;
17686;SDS011;8962;52.538;13.266;2022-10-16T01:07:38;3.72;;;2.25;;
17686;SDS011;8962;52.538;13.266;2022-10-16T01:10:14;2.67;;;2.10;;
17686;SDS011;8962;52.538;13.266;2022-10-16T01:12:51;2.15;;;1.95;;
17686;SDS011;8962;52.538;13.266;2022-10-16T01:15:25;2.80;;;2.40;;
17686;SDS011;8962;52.538;13.266;2022-10-16T01:17:57;2.40;;;2.15;;
17686;SDS011;8962;52.538;13.266;2022-10-16T01:20:31;2.28;;;1.90;;
17686;SDS011;8962;52.538;13.266;2022-10-16T01:23:08;5.30;;;2.00;;
17686;SDS011;8962;52.538;13.266;2022-10-16T01:28:56;2.00;;;1.80;;
17686;SDS011;8962;52.538;13.266;2022-10-16T01:31:30;2.42;;;1.90;;
17686;SDS011;8962;52.538;13.266;2022-10-16T01:34:00;3.15;;;1.90;;
17686;SDS011;8962;52.538;13.266;2022-10-16T01:36:34;2.30;;;2.03;;
17686;SDS011;8962;52.538;13.266;2022-10-16T01:39:04;7.18;;;2.28;;
17686;SDS011;8962;52.538;13.266;2022-10-16T01:41:36;2.20;;;2.00;;
17686;SDS011;8962;52.538;13.266;2022-10-16T01:44:10;2.67;;;1.92;;
17686;SDS011;8962;52.538;13.266;2022-10-16T01:46:42;2.25;;;2.05;;
17686;SDS011;8962;52.538;13.266;2022-10-16T01:49:12;4.43;;;2.05;;
17686;SDS011;8962;52.538;13.266;2022-10-16T01:51:40;3.50;;;2.20;;
17686;SDS011;8962;52.538;13.266;2022-10-16T01:54:11;2.50;;;2.00;;
17686;SDS011;8962;52.538;13.266;2022-10-16T01:56:41;2.58;;;1.90;;
17686;SDS011;8962;52.538;13.266;2022-10-16T01:59:11;3.38;;;2.10;;
17686;SDS011;8962;52.538;13.266;2022-10-16T02:01:42;2.92;;;2.20;;
17686;SDS011;8962;52.538;13.266;2022-10-16T02:04:16;2.05;;;1.83;;
17686;SDS011;8962;52.538;13.266;2022-10-16T02:06:48;2.25;;;2.05;;
17686;SDS011;8962;52.538;13.266;2022-10-16T02:09:16;3.92;;;2.00;;
17686;SDS011;8962;52.538;13.266;2022-10-16T02:11:43;3.63;;;1.77;;
17686;SDS011;8962;52.538;13.266;2022-10-16T02:14:12;3.10;;;1.80;;
17686;SDS011;8962;52.538;13.266;2022-10-16T02:16:41;4.90;;;1.95;;
17686;SDS011;8962;52.538;13.266;2022-10-16T02:19:11;3.83;;;1.77;;
17686;SDS011;8962;52.538;13.266;2022-10-16T02:21:42;2.85;;;1.88;;
17686;SDS011;8962;52.538;13.266;2022-10-16T02:24:17;2.13;;;1.85;;
17686;SDS011;8962;52.538;13.266;2022-10-16T02:26:49;1.90;;;1.70;;
17686;SDS011;8962;52.538;13.266;2022-10-16T02:29:22;2.58;;;1.60;;
17686;SDS011;8962;52.538;13.266;2022-10-16T02:31:53;4.47;;;1.63;;
17686;SDS011;8962;52.538;13.266;2022-10-16T02:34:24;2.95;;;2.00;;
17686;SDS011;8962;52.538;13.266;2022-10-16T02:36:55;2.00;;;1.67;;
17686;SDS011;8962;52.538;13.266;2022-10-16T02:39:24;3.25;;;1.67;;
17686;SDS011;8962;52.538;13.266;2022-10-16T02:41:55;1.90;;;1.80;;
17686;SDS011;8962;52.538;13.266;2022-10-16T02:44:24;3.05;;;1.70;;
17686;SDS011;8962;52.538;13.266;2022-10-16T02:46:51;2.35;;;1.77;;
17686;SDS011;8962;52.538;13.266;2022-10-16T02:49:18;2.42;;;1.60;;
17686;SDS011;8962;52.538;13.266;2022-10-16T02:51:45;2.17;;;1.95;;
17686;SDS011;8962;52.538;13.266;2022-10-16T02:54:15;5.95;;;2.15;;
17686;SDS011;8962;52.538;13.266;2022-10-16T02:56:42;2.67;;;1.80;;
17686;SDS011;8962;52.538;13.266;2022-10-16T02:59:09;2.83;;;1.90;;
17686;SDS011;8962;52.538;13.266;2022-10-16T03:01:37;2.03;;;1.83;;
17686;SDS011;8962;52.538;13.266;2022-10-16T03:04:04;2.35;;;1.90;;
17686;SDS011;8962;52.538;13.266;2022-10-16T03:06:32;3.28;;;1.80;;
17686;SDS011;8962;52.538;13.266;2022-10-16T03:08:59;2.75;;;1.70;;
17686;SDS011;8962;52.538;13.266;2022-10-16T03:11:27;2.72;;;1.90;;
17686;SDS011;8962;52.538;13.266;2022-10-16T03:13:57;4.72;;;1.95;;
17686;SDS011;8962;52.538;13.266;2022-10-16T03:16:24;2.35;;;1.70;;
17686;SDS011;8962;52.538;13.266;2022-10-16T03:18:52;3.30;;;1.75;;
17686;SDS011;8962;52.538;13.266;2022-10-16T03:21:19;2.85;;;2.00;;
17686;SDS011;8962;52.538;13.266;2022-10-16T03:23:47;6.15;;;2.30;;
17686;SDS011;8962;52.538;13.266;2022-10-16T03:26:14;3.67;;;2.20;;
17686;SDS011;8962;52.538;13.266;2022-10-16T03:28:41;2.25;;;2.00;;
17686;SDS011;8962;52.538;13.266;2022-10-16T03:31:08;2.00;;;1.80;;
17686;SDS011;8962;52.538;13.266;2022-10-16T03:33:35;1.92;;;1.75;;
17686;SDS011;8962;52.538;13.266;2022-10-16T03:36:04;3.17;;;2.15;;
17686;SDS011;8962;52.538;13.266;2022-10-16T03:38:31;3.90;;;2.20;;
17686;SDS011;8962;52.538;13.266;2022-10-16T03:41:01;3.28;;;1.80;;
17686;SDS011;8962;52.538;13.266;2022-10-16T03:43:28;4.25;;;2.10;;
17686;SDS011;8962;52.538;13.266;2022-10-16T03:45:57;3.78;;;2.20;;
17686;SDS011;8962;52.538;13.266;2022-10-16T03:48:25;2.60;;;2.00;;
17686;SDS011;8962;52.538;13.266;2022-10-16T03:50:52;3.55;;;2.33;;
17686;SDS011;8962;52.538;13.266;2022-10-16T03:53:23;2.72;;;1.98;;
17686;SDS011;8962;52.538;13.266;2022-10-16T03:55:50;2.30;;;2.08;;
17686;SDS011;8962;52.538;13.266;2022-10-16T03:58:17;3.83;;;2.10;;
17686;SDS011;8962;52.538;13.266;2022-10-16T04:00:46;3.25;;;2.17;;
17686;SDS011;8962;52.538;13.266;2022-10-16T04:03:13;3.97;;;2.20;;
17686;SDS011;8962;52.538;13.266;2022-10-16T04:05:41;2.55;;;2.33;;
17686;SDS011;8962;52.538;13.266;2022-10-16T04:08:07;5.93;;;2.33;;
17686;SDS011;8962;52.538;13.266;2022-10-16T04:10:36;2.80;;;2.40;;
17686;SDS011;8962;52.538;13.266;2022-10-16T04:13:03;2.58;;;2.38;;
17686;SDS011;8962;52.538;13.266;2022-10-16T04:15:30;3.30;;;2.70;;
17686;SDS011;8962;52.538;13.266;2022-10-16T04:17:57;2.80;;;2.50;;
17686;SDS011;8962;52.538;13.266;2022-10-16T04:20:24;4.22;;;3.00;;
17686;SDS011;8962;52.538;13.266;2022-10-16T04:22:51;3.50;;;2.83;;
17686;SDS011;8962;52.538;13.266;2022-10-16T04:25:19;3.90;;;3.08;;
17686;SDS011;8962;52.538;13.266;2022-10-16T04:27:52;3.65;;;2.80;;
17686;SDS011;8962;52.538;13.266;2022-10-16T04:30:19;4.55;;;2.55;;
17686;SDS011;8962;52.538;13.266;2022-10-16T04:32:47;3.70;;;2.90;;
17686;SDS011;8962;52.538;13.266;2022-10-16T04:35:16;2.83;;;2.40;;
17686;SDS011;8962;52.538;13.266;2022-10-16T04:37:46;4.13;;;2.83;;
17686;SDS011;8962;52.538;13.266;2022-10-16T04:40:13;2.55;;;2.28;;
17686;SDS011;8962;52.538;13.266;2022-10-16T04:42:40;3.63;;;2.35;;
17686;SDS011;8962;52.538;13.266;2022-10-16T04:45:10;3.00;;;2.45;;
17686;SDS011;8962;52.538;13.266;2022-10-16T04:47:40;3.17;;;2.67;;
17686;SDS011;8962;52.538;13.266;2022-10-16T04:50:10;3.47;;;2.58;;
17686;SDS011;8962;52.538;13.266;2022-10-16T04:52:38;3.05;;;2.38;;
17686;SDS011;8962;52.538;13.266;2022-10-16T04:55:07;3.95;;;2.40;;
17686;SDS011;8962;52.538;13.266;2022-10-16T04:57:34;5.57;;;2.70;;
17686;SDS011;8962;52.538;13.266;2022-10-16T05:00:01;3.75;;;2.60;;
17686;SDS011;8962;52.538;13.266;2022-10-16T05:02:31;5.03;;;2.67;;
17686;SDS011;8962;52.538;13.266;2022-10-16T05:04:58;2.78;;;2.58;;
17686;SDS011;8962;52.538;13.266;2022-10-16T05:07:25;3.65;;;2.97;;
17686;SDS011;8962;52.538;13.266;2022-10-16T05:09:52;5.93;;;2.85;;
17686;SDS011;8962;52.538;13.266;2022-10-16T05:12:20;2.80;;;2.60;;
17686;SDS011;8962;52.538;13.266;2022-10-16T05:14:51;5.43;;;2.72;;
17686;SDS011;8962;52.538;13.266;2022-10-16T05:17:24;4.05;;;2.78;;
17686;SDS011;8962;52.538;13.266;2022-10-16T05:19:52;6.65;;;2.90;;
17686;SDS011;8962;52.538;13.266;2022-10-16T05:22:23;2.90;;;2.60;;
17686;SDS011;8962;52.538;13.266;2022-10-16T05:24:50;3.28;;;2.72;;
17686;SDS011;8962;52.538;13.266;2022-10-16T05:27:18;3.17;;;2.70;;
17686;SDS011;8962;52.538;13.266;2022-10-16T05:29:45;4.50;;;2.97;;
17686;SDS011;8962;52.538;13.266;2022-10-16T05:32:13;6.32;;;3.50;;
17686;SDS011;8962;52.538;13.266;2022-10-16T05:34:41;4.40;;;2.88;;
17686;SDS011;8962;52.538;13.266;2022-10-16T05:37:11;3.70;;;3.10;;
17686;SDS011;8962;52.538;13.266;2022-10-16T05:39:38;6.15;;;3.45;;
17686;SDS011;8962;52.538;13.266;2022-10-16T05:42:05;4.25;;;2.83;;
17686;SDS011;8962;52.538;13.266;2022-10-16T05:44:35;3.85;;;2.85;;
17686;SDS011;8962;52.538;13.266;2022-10-16T05:47:02;4.05;;;2.80;;
17686;SDS011;8962;52.538;13.266;2022-10-16T05:49:30;3.75;;;2.83;;
17686;SDS011;8962;52.538;13.266;2022-10-16T05:51:57;4.47;;;2.90;;
17686;SDS011;8962;52.538;13.266;2022-10-16T05:54:25;4.65;;;2.85;;
17686;SDS011;8962;52.538;13.266;2022-10-16T05:56:52;4.22;;;2.58;;
17686;SDS011;8962;52.538;13.266;2022-10-16T05:59:21;3.30;;;2.85;;
17686;SDS011;8962;52.538;13.266;2022-10-16T06:01:48;2.63;;;2.42;;
17686;SDS011;8962;52.538;13.266;2022-10-16T06:04:15;3.17;;;2.67;;
17686;SDS011;8962;52.538;13.266;2022-10-16T06:06:43;5.75;;;2.55;;
17686;SDS011;8962;52.538;13.266;2022-10-16T06:09:18;4.28;;;2.40;;
17686;SDS011;8962;52.538;13.266;2022-10-16T06:11:49;5.28;;;2.75;;
17686;SDS011;8962;52.538;13.266;2022-10-16T06:14:16;2.90;;;2.60;;
17686;SDS011;8962;52.538;13.266;2022-10-16T06:16:43;2.63;;;2.42;;
17686;SDS011;8962;52.538;13.266;2022-10-16T06:19:11;3.13;;;2.53;;
17686;SDS011;8962;52.538;13.266;2022-10-16T06:21:38;4.00;;;2.38;;
17686;SDS011;8962;52.538;13.266;2022-10-16T06:24:07;2.90;;;2.30;;
17686;SDS011;8962;52.538;13.266;2022-10-16T06:26:36;4.25;;;2.25;;
17686;SDS011;8962;52.538;13.266;2022-10-16T06:29:06;5.28;;;2.30;;
17686;SDS011;8962;52.538;13.266;2022-10-16T06:34:08;5.95;;;2.88;;
17686;SDS011;8962;52.538;13.266;2022-10-16T06:36:41;3.58;;;2.42;;
17686;SDS011;8962;52.538;13.266;2022-10-16T06:39:09;3.47;;;2.50;;
17686;SDS011;8962;52.538;13.266;2022-10-16T06:41:36;2.92;;;2.63;;
17686;SDS011;8962;52.538;13.266;2022-10-16T06:44:15;3.47;;;2.80;;
17686;SDS011;8962;52.538;13.266;2022-10-16T06:46:44;2.83;;;2.60;;
17686;SDS011;8962;52.538;13.266;2022-10-16T06:49:11;5.20;;;2.72;;
17686;SDS011;8962;52.538;13.266;2022-10-16T06:51:38;3.38;;;2.50;;
17686;SDS011;8962;52.538;13.266;2022-10-16T06:54:07;3.38;;;2.67;;
17686;SDS011;8962;52.538;13.266;2022-10-16T06:56:34;3.55;;;2.67;;
17686;SDS011;8962;52.538;13.266;2022-10-16T06:59:01;3.88;;;2.70;;
17686;SDS011;8962;52.538;13.266;2022-10-16T07:01:29;3.70;;;2.65;;
17686;SDS011;8962;52.538;13.266;2022-10-16T07:03:57;2.88;;;2.60;;
17686;SDS011;8962;52.538;13.266;2022-10-16T07:06:25;4.47;;;2.58;;
17686;SDS011;8962;52.538;13.266;2022-10-16T07:08:57;4.05;;;2.65;;
17686;SDS011;8962;52.538;13.266;2022-10-16T07:11:29;2.95;;;2.35;;
17686;SDS011;8962;52.538;13.266;2022-10-16T07:13:56;2.30;;;2.10;;
17686;SDS011;8962;52.538;13.266;2022-10-16T07:16:24;4.95;;;2.13;;
17686;SDS011;8962;52.538;13.266;2022-10-16T07:18:55;3.95;;;2.58;;
17686;SDS011;8962;52.538;13.266;2022-10-16T07:21:25;3.15;;;2.10;;
17686;SDS011;8962;52.538;13.266;2022-10-16T07:23:54;4.70;;;2.42;;
17686;SDS011;8962;52.538;13.266;2022-10-16T07:26:22;2.50;;;2.20;;
17686;SDS011;8962;52.538;13.266;2022-10-16T07:28:53;2.45;;;2.25;;
17686;SDS011;8962;52.538;13.266;2022-10-16T07:31:20;4.82;;;2.47;;
17686;SDS011;8962;52.538;13.266;2022-10-16T07:33:48;2.78;;;2.00;;
17686;SDS011;8962;52.538;13.266;2022-10-16T07:36:18;2.95;;;2.08;;
17686;SDS011;8962;52.538;13.266;2022-10-16T07:38:47;3.75;;;1.90;;
17686;SDS011;8962;52.538;13.266;2022-10-16T07:41:16;3.75;;;2.30;;
17686;SDS011;8962;52.538;13.266;2022-10-16T07:43:45;4.38;;;2.60;;
17686;SDS011;8962;52.538;13.266;2022-10-16T07:46:15;4.25;;;2.33;;
17686;SDS011;8962;52.538;13.266;2022-10-16T07:48:43;4.38;;;2.63;;
17686;SDS011;8962;52.538;13.266;2022-10-16T07:51:14;2.10;;;1.80;;
17686;SDS011;8962;52.538;13.266;2022-10-16T07:53:44;2.80;;;2.40;;
17686;SDS011;8962;52.538;13.266;2022-10-16T07:56:11;2.67;;;2.10;;
17686;SDS011;8962;52.538;13.266;2022-10-16T07:58:40;4.18;;;2.22;;
17686;SDS011;8962;52.538;13.266;2022-10-16T08:01:08;4.50;;;2.00;;
17686;SDS011;8962;52.538;13.266;2022-10-16T08:03:37;2.78;;;1.80;;
17686;SDS011;8962;52.538;13.266;2022-10-16T08:06:04;2.40;;;2.00;;
17686;SDS011;8962;52.538;13.266;2022-10-16T08:08:31;1.95;;;1.73;;
17686;SDS011;8962;52.538;13.266;2022-10-16T08:11:01;1.85;;;1.60;;
17686;SDS011;8962;52.538;13.266;2022-10-16T08:13:31;1.75;;;1.60;;
17686;SDS011;8962;52.538;13.266;2022-10-16T08:16:02;2.60;;;1.80;;
17686;SDS011;8962;52.538;13.266;2022-10-16T08:18:33;4.18;;;2.00;;
17686;SDS011;8962;52.538;13.266;2022-10-16T08:21:01;4.85;;;1.65;;
17686;SDS011;8962;52.538;13.266;2022-10-16T08:23:38;5.20;;;1.90;;
17686;SDS011;8962;52.538;13.266;2022-10-16T08:26:07;2.75;;;1.80;;
17686;SDS011;8962;52.538;13.266;2022-10-16T08:28:36;3.15;;;1.70;;
17686;SDS011;8962;52.538;13.266;2022-10-16T08:31:09;2.08;;;1.88;;
17686;SDS011;8962;52.538;13.266;2022-10-16T08:33:38;1.90;;;1.50;;
17686;SDS011;8962;52.538;13.266;2022-10-16T08:36:08;2.35;;;1.63;;
17686;SDS011;8962;52.538;13.266;2022-10-16T08:38:36;3.90;;;1.80;;
17686;SDS011;8962;52.538;13.266;2022-10-16T08:41:17;5.70;;;2.03;;
17686;SDS011;8962;52.538;13.266;2022-10-16T08:44:11;3.03;;;1.73;;
17686;SDS011;8962;52.538;13.266;2022-10-16T08:47:13;3.25;;;1.42;;
17686;SDS011;8962;52.538;13.266;2022-10-16T08:49:50;2.78;;;1.60;;
17686;SDS011;8962;52.538;13.266;2022-10-16T08:52:24;4.03;;;1.38;;
17686;SDS011;8962;52.538;13.266;2022-10-16T08:54:55;2.45;;;1.70;;
17686;SDS011;8962;52.538;13.266;2022-10-16T08:57:25;5.47;;;1.77;;
17686;SDS011;8962;52.538;13.266;2022-10-16T08:59:53;4.22;;;1.40;;
17686;SDS011;8962;52.538;13.266;2022-10-16T09:02:26;5.45;;;1.77;;
17686;SDS011;8962;52.538;13.266;2022-10-16T09:05:02;2.42;;;1.75;;
17686;SDS011;8962;52.538;13.266;2022-10-16T09:07:54;2.25;;;1.60;;
17686;SDS011;8962;52.538;13.266;2022-10-16T09:10:33;3.88;;;2.50;;
17686;SDS011;8962;52.538;13.266;2022-10-16T09:13:13;4.38;;;1.70;;
17686;SDS011;8962;52.538;13.266;2022-10-16T09:15:46;1.90;;;1.60;;
17686;SDS011;8962;52.538;13.266;2022-10-16T09:18:19;1.55;;;1.45;;
17686;SDS011;8962;52.538;13.266;2022-10-16T09:20:51;1.92;;;1.70;;
17686;SDS011;8962;52.538;13.266;2022-10-16T09:23:26;3.47;;;2.17;;
17686;SDS011;8962;52.538;13.266;2022-10-16T09:25:55;2.65;;;2.03;;
17686;SDS011;8962;52.538;13.266;2022-10-16T09:28:27;4.45;;;2.40;;
17686;SDS011;8962;52.538;13.266;2022-10-16T09:30:55;4.47;;;2.30;;
17686;SDS011;8962;52.538;13.266;2022-10-16T09:33:23;1.80;;;1.60;;
17686;SDS011;8962;52.538;13.266;2022-10-16T09:35:56;2.28;;;1.70;;
17686;SDS011;8962;52.538;13.266;2022-10-16T09:38:25;5.55;;;1.63;;
17686;SDS011;8962;52.538;13.266;2022-10-16T09:40:55;1.85;;;1.58;;
17686;SDS011;8962;52.538;13.266;2022-10-16T09:43:25;1.90;;;1.70;;
17686;SDS011;8962;52.538;13.266;2022-10-16T09:45:58;2.50;;;1.77;;
17686;SDS011;8962;52.538;13.266;2022-10-16T09:48:28;3.08;;;2.00;;
17686;SDS011;8962;52.538;13.266;2022-10-16T09:51:00;4.43;;;2.20;;
17686;SDS011;8962;52.538;13.266;2022-10-16T09:53:38;1.65;;;1.55;;
17686;SDS011;8962;52.538;13.266;2022-10-16T09:56:09;3.75;;;1.75;;
17686;SDS011;8962;52.538;13.266;2022-10-16T09:58:50;4.70;;;1.80;;
17686;SDS011;8962;52.538;13.266;2022-10-16T10:01:17;5.40;;;1.90;;
17686;SDS011;8962;52.538;13.266;2022-10-16T10:03:46;4.90;;;2.20;;
17686;SDS011;8962;52.538;13.266;2022-10-16T10:06:21;3.03;;;1.80;;
17686;SDS011;8962;52.538;13.266;2022-10-16T10:09:02;3.15;;;1.92;;
17686;SDS011;8962;52.538;13.266;2022-10-16T10:11:41;3.60;;;1.63;;
17686;SDS011;8962;52.538;13.266;2022-10-16T10:14:23;4.95;;;1.55;;
17686;SDS011;8962;52.538;13.266;2022-10-16T10:17:09;2.10;;;1.85;;
17686;SDS011;8962;52.538;13.266;2022-10-16T10:19:42;3.58;;;1.80;;
17686;SDS011;8962;52.538;13.266;2022-10-16T10:22:31;9.05;;;4.90;;
17686;SDS011;8962;52.538;13.266;2022-10-16T10:28:21;7.55;;;3.63;;
17686;SDS011;8962;52.538;13.266;2022-10-16T10:31:03;3.40;;;1.58;;
17686;SDS011;8962;52.538;13.266;2022-10-16T10:33:38;3.53;;;1.70;;
17686;SDS011;8962;52.538;13.266;2022-10-16T10:36:20;8.07;;;1.70;;
17686;SDS011;8962;52.538;13.266;2022-10-16T10:38:54;12.50;;;4.95;;
17686;SDS011;8962;52.538;13.266;2022-10-16T10:44:22;6.10;;;2.28;;
17686;SDS011;8962;52.538;13.266;2022-10-16T10:47:01;5.78;;;3.55;;
17686;SDS011;8962;52.538;13.266;2022-10-16T10:49:39;7.22;;;4.93;;
17686;SDS011;8962;52.538;13.266;2022-10-16T10:52:24;3.67;;;2.13;;
17686;SDS011;8962;52.538;13.266;2022-10-16T10:55:03;2.10;;;1.60;;
17686;SDS011;8962;52.538;13.266;2022-10-16T10:57:43;2.85;;;1.40;;
17686;SDS011;8962;52.538;13.266;2022-10-16T11:00:26;4.18;;;1.63;;
17686;SDS011;8962;52.538;13.266;2022-10-16T11:03:03;4.38;;;1.48;;
17686;SDS011;8962;52.538;13.266;2022-10-16T11:05:40;5.10;;;1.60;;
17686;SDS011;8962;52.538;13.266;2022-10-16T11:08:10;4.45;;;1.90;;
17686;SDS011;8962;52.538;13.266;2022-10-16T11:10:48;1.65;;;1.50;;
17686;SDS011;8962;52.538;13.266;2022-10-16T11:13:20;3.20;;;1.80;;
17686;SDS011;8962;52.538;13.266;2022-10-16T11:15:56;6.40;;;3.65;;
17686;SDS011;8962;52.538;13.266;2022-10-16T11:18:30;6.50;;;3.20;;
17686;SDS011;8962;52.538;13.266;2022-10-16T11:21:04;3.20;;;1.27;;
17686;SDS011;8962;52.538;13.266;2022-10-16T11:23:37;3.20;;;1.25;;
17686;SDS011;8962;52.538;13.266;2022-10-16T11:26:11;2.03;;;1.50;;
17686;SDS011;8962;52.538;13.266;2022-10-16T11:28:44;3.40;;;1.80;;
17686;SDS011;8962;52.538;13.266;2022-10-16T11:31:16;2.88;;;1.52;;
17686;SDS011;8962;52.538;13.266;2022-10-16T11:33:51;1.98;;;1.20;;
17686;SDS011;8962;52.538;13.266;2022-10-16T11:36:27;2.80;;;1.38;;
17686;SDS011;8962;52.538;13.266;2022-10-16T11:39:04;2.35;;;1.40;;
17686;SDS011;8962;52.538;13.266;2022-10-16T11:41:44;1.33;;;1.23;;
17686;SDS011;8962;52.538;13.266;2022-10-16T11:44:17;5.20;;;1.50;;
17686;SDS011;8962;52.538;13.266;2022-10-16T11:46:50;5.07;;;1.52;;
17686;SDS011;8962;52.538;13.266;2022-10-16T11:49:27;3.80;;;2.33;;
17686;SDS011;8962;52.538;13.266;2022-10-16T11:51:59;2.65;;;1.70;;
17686;SDS011;8962;52.538;13.266;2022-10-16T11:54:35;1.98;;;1.30;;
17686;SDS011;8962;52.538;13.266;2022-10-16T11:57:09;1.85;;;1.30;;
17686;SDS011;8962;52.538;13.266;2022-10-16T11:59:41;3.28;;;1.40;;
17686;SDS011;8962;52.538;13.266;2022-10-16T12:02:20;4.25;;;1.65;;
17686;SDS011;8962;52.538;13.266;2022-10-16T12:05:01;2.70;;;1.17;;
17686;SDS011;8962;52.538;13.266;2022-10-16T12:07:36;1.98;;;1.15;;
17686;SDS011;8962;52.538;13.266;2022-10-16T12:10:17;3.35;;;1.20;;
17686;SDS011;8962;52.538;13.266;2022-10-16T12:12:47;6.03;;;2.58;;
17686;SDS011;8962;52.538;13.266;2022-10-16T12:15:21;5.93;;;2.85;;
17686;SDS011;8962;52.538;13.266;2022-10-16T12:17:50;5.47;;;3.90;;
17686;SDS011;8962;52.538;13.266;2022-10-16T12:20:21;3.47;;;1.25;;
17686;SDS011;8962;52.538;13.266;2022-10-16T12:22:53;2.00;;;0.80;;
17686;SDS011;8962;52.538;13.266;2022-10-16T12:25:23;3.10;;;0.95;;
17686;SDS011;8962;52.538;13.266;2022-10-16T12:27:57;1.92;;;1.00;;
17686;SDS011;8962;52.538;13.266;2022-10-16T12:30:30;4.70;;;1.13;;
17686;SDS011;8962;52.538;13.266;2022-10-16T12:33:00;2.22;;;1.15;;
17686;SDS011;8962;52.538;13.266;2022-10-16T12:35:31;3.70;;;1.35;;
17686;SDS011;8962;52.538;13.266;2022-10-16T12:38:07;1.08;;;0.77;;
17686;SDS011;8962;52.538;13.266;2022-10-16T12:40:43;5.00;;;1.83;;
17686;SDS011;8962;52.538;13.266;2022-10-16T12:43:24;3.97;;;1.15;;
17686;SDS011;8962;52.538;13.266;2022-10-16T12:46:05;0.90;;;0.80;;
17686;SDS011;8962;52.538;13.266;2022-10-16T12:48:47;1.85;;;1.00;;
17686;SDS011;8962;52.538;13.266;2022-10-16T12:51:24;1.02;;;0.70;;
17686;SDS011;8962;52.538;13.266;2022-10-16T12:53:59;2.08;;;0.80;;
17686;SDS011;8962;52.538;13.266;2022-10-16T12:56:30;1.08;;;0.73;;
17686;SDS011;8962;52.538;13.266;2022-10-16T12:59:08;1.00;;;0.80;;
17686;SDS011;8962;52.538;13.266;2022-10-16T13:01:42;0.98;;;0.80;;
17686;SDS011;8962;52.538;13.266;2022-10-16T13:04:25;2.53;;;0.90;;
17686;SDS011;8962;52.538;13.266;2022-10-16T13:07:13;1.85;;;0.90;;
17686;SDS011;8962;52.538;13.266;2022-10-16T13:09:51;1.20;;;0.73;;
17686;SDS011;8962;52.538;13.266;2022-10-16T13:15:22;1.00;;;0.70;;
17686;SDS011;8962;52.538;13.266;2022-10-16T13:17:59;1.02;;;0.88;;
17686;SDS011;8962;52.538;13.266;2022-10-16T13:20:33;1.42;;;1.10;;
17686;SDS011;8962;52.538;13.266;2022-10-16T13:23:13;2.25;;;0.70;;
17686;SDS011;8962;52.538;13.266;2022-10-16T13:25:53;1.92;;;1.10;;
17686;SDS011;8962;52.538;13.266;2022-10-16T13:28:30;1.17;;;0.90;;
17686;SDS011;8962;52.538;13.266;2022-10-16T13:30:59;4.18;;;1.10;;
17686;SDS011;8962;52.538;13.266;2022-10-16T13:33:30;2.15;;;0.90;;
17686;SDS011;8962;52.538;13.266;2022-10-16T13:35:59;2.10;;;1.00;;
17686;SDS011;8962;52.538;13.266;2022-10-16T13:38:31;1.00;;;0.80;;
17686;SDS011;8962;52.538;13.266;2022-10-16T13:41:01;1.02;;;0.80;;
17686;SDS011;8962;52.538;13.266;2022-10-16T13:43:31;0.75;;;0.60;;
17686;SDS011;8962;52.538;13.266;2022-10-16T13:46:01;4.50;;;0.90;;
17686;SDS011;8962;52.538;13.266;2022-10-16T13:48:32;1.67;;;0.90;;
17686;SDS011;8962;52.538;13.266;2022-10-16T13:51:02;2.95;;;1.00;;
17686;SDS011;8962;52.538;13.266;2022-10-16T13:53:34;1.63;;;0.77;;
17686;SDS011;8962;52.538;13.266;2022-10-16T13:56:03;1.30;;;0.80;;
17686;SDS011;8962;52.538;13.266;2022-10-16T13:58:35;11.43;;;4.32;;
17686;SDS011;8962;52.538;13.266;2022-10-16T14:04:10;4.00;;;0.90;;
17686;SDS011;8962;52.538;13.266;2022-10-16T14:06:40;1.42;;;0.80;;
17686;SDS011;8962;52.538;13.266;2022-10-16T14:09:14;2.38;;;1.10;;
17686;SDS011;8962;52.538;13.266;2022-10-16T14:11:49;4.00;;;2.38;;
17686;SDS011;8962;52.538;13.266;2022-10-16T14:14:18;1.75;;;0.75;;
17686;SDS011;8962;52.538;13.266;2022-10-16T14:16:49;2.55;;;1.00;;
17686;SDS011;8962;52.538;13.266;2022-10-16T14:19:20;1.17;;;0.80;;
17686;SDS011;8962;52.538;13.266;2022-10-16T14:21:52;1.95;;;1.10;;
17686;SDS011;8962;52.538;13.266;2022-10-16T14:24:31;1.40;;;1.05;;
17686;SDS011;8962;52.538;13.266;2022-10-16T14:26:59;4.13;;;1.10;;
17686;SDS011;8962;52.538;13.266;2022-10-16T14:29:28;2.17;;;1.40;;
17686;SDS011;8962;52.538;13.266;2022-10-16T14:32:05;3.50;;;0.90;;
17686;SDS011;8962;52.538;13.266;2022-10-16T14:34:35;2.95;;;1.20;;
17686;SDS011;8962;52.538;13.266;2022-10-16T14:37:06;1.30;;;1.02;;
17686;SDS011;8962;52.538;13.266;2022-10-16T14:39:41;1.88;;;1.05;;
17686;SDS011;8962;52.538;13.266;2022-10-16T14:42:11;2.60;;;0.98;;
17686;SDS011;8962;52.538;13.266;2022-10-16T14:44:42;2.03;;;1.25;;
17686;SDS011;8962;52.538;13.266;2022-10-16T14:47:12;3.72;;;1.27;;
17686;SDS011;8962;52.538;13.266;2022-10-16T14:49:42;2.08;;;1.17;;
17686;SDS011;8962;52.538;13.266;2022-10-16T14:52:09;3.67;;;1.40;;
17686;SDS011;8962;52.538;13.266;2022-10-16T14:54:39;0.80;;;0.80;;
17686;SDS011;8962;52.538;13.266;2022-10-16T14:57:13;7.90;;;0.95;;
17686;SDS011;8962;52.538;13.266;2022-10-16T14:59:43;2.70;;;1.08;;
17686;SDS011;8962;52.538;13.266;2022-10-16T15:02:16;1.60;;;0.90;;
17686;SDS011;8962;52.538;13.266;2022-10-16T15:04:49;7.95;;;5.68;;
17686;SDS011;8962;52.538;13.266;2022-10-16T15:07:19;4.60;;;1.63;;
17686;SDS011;8962;52.538;13.266;2022-10-16T15:09:47;3.90;;;1.05;;
17686;SDS011;8962;52.538;13.266;2022-10-16T15:12:15;3.88;;;1.10;;
17686;SDS011;8962;52.538;13.266;2022-10-16T15:14:42;2.50;;;0.90;;
17686;SDS011;8962;52.538;13.266;2022-10-16T15:17:15;2.28;;;1.20;;
17686;SDS011;8962;52.538;13.266;2022-10-16T15:19:42;2.17;;;1.10;;
17686;SDS011;8962;52.538;13.266;2022-10-16T15:22:11;3.17;;;1.05;;
17686;SDS011;8962;52.538;13.266;2022-10-16T15:24:38;3.50;;;1.10;;
17686;SDS011;8962;52.538;13.266;2022-10-16T15:27:07;2.75;;;1.40;;
17686;SDS011;8962;52.538;13.266;2022-10-16T15:29:34;2.90;;;1.33;;